Time;durP1;ratioP1;P1;durP2;ratioP2;P2;SDS_P1;SDS_P2;PMS_P1;PMS_P2;Temp;Humidity;BMP_temperature;BMP_pressure;BME280_temperature;BME280_humidity;BME280_pressure;Samples;Min_cycle;Max_cycle;Signal;HPM_P1;HPM_P2
2021/06/17 00:01:33;;;;;;;4.75;3.85;;;;;;;;;;4364958;32;20114;-76
2021/06/17 00:03:59;;;;;;;7.07;4.03;;;;;;;;;;4363361;32;20031;-76
2021/06/17 00:06:25;;;;;;;7.43;4.25;;;;;;;;;;4364400;32;20027;-75
2021/06/17 00:08:51;;;;;;;5.00;4.50;;;;;;;;;;4362069;32;20462;-75
2021/06/17 00:11:17;;;;;;;5.65;4.20;;;;;;;;;;4365471;32;20043;-75
2021/06/17 00:13:43;;;;;;;4.87;4.20;;;;;;;;;;4363419;32;20032;-75
2021/06/17 00:16:10;;;;;;;6.05;3.85;;;;;;;;;;4363332;32;20073;-85
2021/06/17 00:18:38;;;;;;;4.93;4.03;;;;;;;;;;4360682;32;20146;-78
2021/06/17 00:21:04;;;;;;;4.60;4.07;;;;;;;;;;4360714;32;20027;-77
2021/06/17 00:23:31;;;;;;;7.95;5.00;;;;;;;;;;4364111;32;20110;-84
2021/06/17 00:25:57;;;;;;;4.65;4.25;;;;;;;;;;4363988;32;20161;-76
2021/06/17 00:28:24;;;;;;;4.50;4.10;;;;;;;;;;4366549;32;20023;-75
2021/06/17 00:30:50;;;;;;;7.97;4.70;;;;;;;;;;4367354;32;20063;-75
2021/06/17 00:33:16;;;;;;;5.80;4.50;;;;;;;;;;4357052;32;20079;-75
2021/06/17 00:35:43;;;;;;;5.82;4.35;;;;;;;;;;4365591;32;20034;-76
2021/06/17 00:38:09;;;;;;;9.18;4.68;;;;;;;;;;4359704;32;20027;-74
2021/06/17 00:40:35;;;;;;;8.82;4.65;;;;;;;;;;4365174;32;20031;-77
2021/06/17 00:43:02;;;;;;;5.55;4.20;;;;;;;;;;4366875;32;20483;-75
2021/06/17 00:45:41;;;;;;;5.85;4.47;;;;;;;;;;4359069;32;20105;-77
2021/06/17 00:48:07;;;;;;;6.47;4.47;;;;;;;;;;4364588;32;20079;-76
2021/06/17 00:50:41;;;;;;;6.47;4.37;;;;;;;;;;4364333;32;20061;-76
2021/06/17 00:53:09;;;;;;;7.18;4.75;;;;;;;;;;4362814;32;20161;-77
2021/06/17 00:55:36;;;;;;;5.28;4.18;;;;;;;;;;4364321;32;20031;-76
2021/06/17 00:58:03;;;;;;;5.90;4.30;;;;;;;;;;4364863;32;20145;-76
2021/06/17 01:00:29;;;;;;;5.00;4.50;;;;;;;;;;4364616;32;20059;-75
2021/06/17 01:02:55;;;;;;;9.05;4.85;;;;;;;;;;4366647;32;20065;-77
2021/06/17 01:05:22;;;;;;;6.25;4.78;;;;;;;;;;4359548;32;20027;-78
2021/06/17 01:08:03;;;;;;;4.87;4.25;;;;;;;;;;4370365;32;20084;-76
2021/06/17 01:10:37;;;;;;;5.00;4.07;;;;;;;;;;4363230;32;20074;-75
2021/06/17 01:13:12;;;;;;;6.20;4.35;;;;;;;;;;4362119;32;20061;-76
2021/06/17 01:15:40;;;;;;;7.28;4.53;;;;;;;;;;4358609;32;20046;-75
2021/06/17 01:18:10;;;;;;;8.68;5.15;;;;;;;;;;4363597;32;20109;-75
2021/06/17 01:20:43;;;;;;;9.00;4.87;;;;;;;;;;4365218;32;20031;-75
2021/06/17 01:23:24;;;;;;;8.80;4.78;;;;;;;;;;4364385;32;20100;-75
2021/06/17 01:26:02;;;;;;;4.70;4.07;;;;;;;;;;4367940;32;20047;-84
2021/06/17 01:28:29;;;;;;;8.20;4.50;;;;;;;;;;4358377;32;20623;-85
2021/06/17 01:31:12;;;;;;;5.78;4.03;;;;;;;;;;4369439;32;20039;-74
2021/06/17 01:33:43;;;;;;;4.80;4.30;;;;;;;;;;4364310;32;20097;-75
2021/06/17 01:36:17;;;;;;;4.72;4.12;;;;;;;;;;4364858;32;20028;-75
2021/06/17 01:38:49;;;;;;;5.40;4.62;;;;;;;;;;4359371;32;20044;-77
2021/06/17 01:41:16;;;;;;;5.87;4.18;;;;;;;;;;4363618;32;20078;-75
2021/06/17 01:43:43;;;;;;;5.00;4.60;;;;;;;;;;4362154;32;20040;-75
2021/06/17 01:46:11;;;;;;;6.43;4.45;;;;;;;;;;4361096;32;20027;-76
2021/06/17 01:48:38;;;;;;;5.90;4.28;;;;;;;;;;4365298;32;20066;-75
2021/06/17 01:51:04;;;;;;;6.10;5.00;;;;;;;;;;4360241;32;20751;-75
2021/06/17 01:53:30;;;;;;;6.93;4.95;;;;;;;;;;4369985;32;20058;-75
2021/06/17 01:55:58;;;;;;;7.05;4.80;;;;;;;;;;4369002;32;20097;-77
2021/06/17 01:58:25;;;;;;;6.60;5.45;;;;;;;;;;4360421;32;20028;-74
2021/06/17 02:00:51;;;;;;;7.53;5.12;;;;;;;;;;4365623;32;20648;-76
2021/06/17 02:03:18;;;;;;;6.70;5.05;;;;;;;;;;4361327;32;20887;-75
2021/06/17 02:05:44;;;;;;;8.07;5.12;;;;;;;;;;4360964;32;20059;-75
2021/06/17 02:08:11;;;;;;;5.95;5.15;;;;;;;;;;4360528;32;20035;-76
2021/06/17 02:10:39;;;;;;;7.80;5.30;;;;;;;;;;4361343;32;20027;-75
2021/06/17 02:13:06;;;;;;;5.18;4.45;;;;;;;;;;4365037;32;20130;-76
2021/06/17 02:15:32;;;;;;;6.55;5.10;;;;;;;;;;4360592;32;20035;-79
2021/06/17 02:18:00;;;;;;;7.45;4.87;;;;;;;;;;4359700;32;20070;-76
2021/06/17 02:20:27;;;;;;;7.78;5.53;;;;;;;;;;4364377;32;20027;-75
2021/06/17 02:22:54;;;;;;;9.52;5.53;;;;;;;;;;4357930;32;20035;-77
2021/06/17 02:25:21;;;;;;;7.53;5.37;;;;;;;;;;4364188;32;20420;-75
2021/06/17 02:27:49;;;;;;;7.20;5.07;;;;;;;;;;4361536;32;20031;-74
2021/06/17 02:30:15;;;;;;;8.20;5.25;;;;;;;;;;4362836;32;20085;-74
2021/06/17 02:32:53;;;;;;;5.07;4.60;;;;;;;;;;4362355;32;20050;-82
2021/06/17 02:35:21;;;;;;;7.87;5.60;;;;;;;;;;4364127;32;20038;-75
2021/06/17 02:37:49;;;;;;;7.95;5.00;;;;;;;;;;4366453;32;20117;-75
2021/06/17 02:40:17;;;;;;;7.10;5.05;;;;;;;;;;4362121;32;20035;-75
2021/06/17 02:42:44;;;;;;;9.77;5.53;;;;;;;;;;4363276;32;20463;-76
2021/06/17 02:45:11;;;;;;;5.85;4.75;;;;;;;;;;4352571;32;20061;-83
2021/06/17 02:47:38;;;;;;;7.45;6.03;;;;;;;;;;4359986;32;20145;-76
2021/06/17 02:50:05;;;;;;;6.53;5.85;;;;;;;;;;4358155;32;20498;-82
2021/06/17 02:52:32;;;;;;;9.82;6.10;;;;;;;;;;4359307;32;20073;-75
2021/06/17 02:54:58;;;;;;;6.43;5.05;;;;;;;;;;4360711;32;20478;-79
2021/06/17 02:57:27;;;;;;;7.32;5.30;;;;;;;;;;4359325;32;20039;-75
2021/06/17 03:00:07;;;;;;;5.75;5.20;;;;;;;;;;4357918;32;20108;-75
2021/06/17 03:02:52;;;;;;;5.87;5.28;;;;;;;;;;4358261;32;20036;-75
2021/06/17 03:05:21;;;;;;;7.57;5.68;;;;;;;;;;4361177;32;20034;-75
2021/06/17 03:08:01;;;;;;;5.90;5.00;;;;;;;;;;4364334;32;20070;-75
2021/06/17 03:10:29;;;;;;;7.97;5.32;;;;;;;;;;4367514;32;20182;-75
2021/06/17 03:12:56;;;;;;;10.07;5.25;;;;;;;;;;4367075;32;20553;-81
2021/06/17 03:15:24;;;;;;;5.78;5.25;;;;;;;;;;4366192;32;20687;-75
2021/06/17 03:17:51;;;;;;;6.03;5.32;;;;;;;;;;4367234;32;20236;-75
2021/06/17 03:20:18;;;;;;;6.30;5.40;;;;;;;;;;4365540;32;20058;-75
2021/06/17 03:22:47;;;;;;;6.07;5.32;;;;;;;;;;4349173;32;20032;-80
2021/06/17 03:25:15;;;;;;;7.57;5.10;;;;;;;;;;4363632;32;20027;-79
2021/06/17 03:27:42;;;;;;;5.60;5.10;;;;;;;;;;4365468;32;20035;-75
2021/06/17 03:30:08;;;;;;;7.53;5.25;;;;;;;;;;4350108;32;20386;-75
2021/06/17 03:32:36;;;;;;;5.87;5.32;;;;;;;;;;4364369;32;20632;-75
2021/06/17 03:35:03;;;;;;;6.85;5.05;;;;;;;;;;4365749;32;20058;-75
2021/06/17 03:37:29;;;;;;;6.20;5.30;;;;;;;;;;4366108;32;20110;-76
2021/06/17 03:39:57;;;;;;;7.20;6.00;;;;;;;;;;4367185;32;20077;-75
2021/06/17 03:42:24;;;;;;;9.27;5.62;;;;;;;;;;4365122;32;20099;-75
2021/06/17 03:44:51;;;;;;;6.30;5.70;;;;;;;;;;4365761;32;20032;-79
2021/06/17 03:47:18;;;;;;;8.10;7.30;;;;;;;;;;4366378;32;20070;-74
2021/06/17 03:49:44;;;;;;;10.85;7.55;;;;;;;;;;4365409;32;20111;-75
2021/06/17 03:52:13;;;;;;;13.10;7.53;;;;;;;;;;4365008;32;20051;-75
2021/06/17 03:54:40;;;;;;;10.23;7.00;;;;;;;;;;4365491;32;20039;-80
2021/06/17 03:57:08;;;;;;;7.95;6.18;;;;;;;;;;4365344;32;20380;-75
2021/06/17 03:59:38;;;;;;;7.80;5.72;;;;;;;;;;4363697;32;20069;-75
2021/06/17 04:02:05;;;;;;;8.35;5.43;;;;;;;;;;4366125;32;20122;-76
2021/06/17 04:04:32;;;;;;;6.87;5.18;;;;;;;;;;4365085;32;20088;-75
2021/06/17 04:06:59;;;;;;;6.62;5.53;;;;;;;;;;4365600;32;20150;-83
2021/06/17 04:09:30;;;;;;;7.57;5.90;;;;;;;;;;4364730;32;20039;-74
2021/06/17 04:11:57;;;;;;;5.63;5.13;;;;;;;;;;4364396;32;20047;-75
2021/06/17 04:14:24;;;;;;;6.03;5.43;;;;;;;;;;4364613;32;20089;-75
2021/06/17 04:16:52;;;;;;;7.85;5.85;;;;;;;;;;4365230;32;20067;-84
2021/06/17 04:19:28;;;;;;;8.15;5.57;;;;;;;;;;4366158;32;20031;-81
2021/06/17 04:22:02;;;;;;;8.85;6.68;;;;;;;;;;4367276;32;20461;-85
2021/06/17 04:24:29;;;;;;;10.27;6.93;;;;;;;;;;4362008;32;20027;-88
2021/06/17 04:26:56;;;;;;;9.98;6.40;;;;;;;;;;4360603;32;20073;-79
2021/06/17 04:29:23;;;;;;;9.35;6.82;;;;;;;;;;4361027;32;20035;-87
2021/06/17 04:31:50;;;;;;;10.00;7.68;;;;;;;;;;4369053;32;20081;-77
2021/06/17 04:34:17;;;;;;;12.15;7.45;;;;;;;;;;4366525;32;20034;-77
2021/06/17 04:36:44;;;;;;;10.48;7.57;;;;;;;;;;4365660;32;20647;-87
2021/06/17 04:39:10;;;;;;;15.15;8.32;;;;;;;;;;4366830;32;20568;-79
2021/06/17 04:41:39;;;;;;;15.02;8.55;;;;;;;;;;4362811;32;20618;-78
2021/06/17 04:44:06;;;;;;;14.23;7.50;;;;;;;;;;4364809;32;20031;-80
2021/06/17 04:46:33;;;;;;;10.90;8.93;;;;;;;;;;4364069;32;20027;-76
2021/06/17 04:49:00;;;;;;;17.08;10.85;;;;;;;;;;4362798;32;20047;-76
2021/06/17 04:51:26;;;;;;;23.10;11.35;;;;;;;;;;4365288;32;20043;-75
2021/06/17 04:53:54;;;;;;;16.70;10.10;;;;;;;;;;4364089;32;20359;-75
2021/06/17 04:56:21;;;;;;;10.63;7.30;;;;;;;;;;4365251;32;20070;-80
2021/06/17 04:58:49;;;;;;;14.55;7.62;;;;;;;;;;4364385;32;20487;-75
2021/06/17 05:01:19;;;;;;;8.63;6.62;;;;;;;;;;4364292;32;20463;-75
2021/06/17 05:03:45;;;;;;;9.10;6.80;;;;;;;;;;4364196;32;20075;-76
2021/06/17 05:06:13;;;;;;;7.68;6.60;;;;;;;;;;4363560;32;20466;-76
2021/06/17 05:11:25;;;;;;;10.45;6.20;;;;;;;;;;4365365;32;20054;-75
2021/06/17 05:13:52;;;;;;;9.35;6.57;;;;;;;;;;4367502;32;20382;-76
2021/06/17 05:16:18;;;;;;;14.10;7.45;;;;;;;;;;4368098;32;20094;-76
2021/06/17 05:18:44;;;;;;;11.85;6.72;;;;;;;;;;4367820;32;20650;-76
2021/06/17 05:21:10;;;;;;;8.57;5.60;;;;;;;;;;4365967;32;20027;-76
2021/06/17 05:23:38;;;;;;;7.53;5.25;;;;;;;;;;4367107;32;20030;-76
2021/06/17 05:26:04;;;;;;;10.05;6.68;;;;;;;;;;4367858;32;20482;-76
2021/06/17 05:28:30;;;;;;;13.73;7.22;;;;;;;;;;4366376;32;20066;-75
2021/06/17 05:31:01;;;;;;;9.63;7.65;;;;;;;;;;4364565;32;20023;-75
2021/06/17 05:33:30;;;;;;;9.57;7.65;;;;;;;;;;4366391;32;20070;-76
2021/06/17 05:35:56;;;;;;;11.35;6.93;;;;;;;;;;4366639;32;20092;-75
2021/06/17 05:38:22;;;;;;;14.20;7.00;;;;;;;;;;4350091;33;20616;-79
2021/06/17 05:40:49;;;;;;;9.90;6.20;;;;;;;;;;4364201;32;20030;-77
2021/06/17 05:43:15;;;;;;;8.82;6.20;;;;;;;;;;4366334;32;20035;-75
2021/06/17 05:45:42;;;;;;;10.25;6.45;;;;;;;;;;4365993;32;20055;-76
2021/06/17 05:48:08;;;;;;;10.63;6.28;;;;;;;;;;4367483;32;20035;-80
2021/06/17 05:50:35;;;;;;;11.12;7.03;;;;;;;;;;4367578;32;20097;-75
2021/06/17 05:53:02;;;;;;;10.55;6.43;;;;;;;;;;4366790;32;20058;-76
2021/06/17 05:55:28;;;;;;;7.43;5.35;;;;;;;;;;4364634;32;20126;-76
2021/06/17 05:57:54;;;;;;;8.23;5.60;;;;;;;;;;4367686;32;20035;-76
2021/06/17 06:00:20;;;;;;;5.57;5.05;;;;;;;;;;4366001;32;20386;-78
2021/06/17 06:02:46;;;;;;;5.80;4.50;;;;;;;;;;4349551;33;20200;-76
2021/06/17 06:05:13;;;;;;;13.38;5.93;;;;;;;;;;4341692;32;20069;-76
2021/06/17 06:07:39;;;;;;;9.65;5.40;;;;;;;;;;4366093;32;20458;-76
2021/06/17 06:10:09;;;;;;;9.10;5.95;;;;;;;;;;4366022;32;20396;-77
2021/06/17 06:12:35;;;;;;;6.68;5.97;;;;;;;;;;4366053;32;20042;-76
2021/06/17 06:15:01;;;;;;;6.20;5.60;;;;;;;;;;4367369;32;20035;-77
2021/06/17 06:17:27;;;;;;;8.30;5.55;;;;;;;;;;4364365;32;20135;-75
2021/06/17 06:19:53;;;;;;;9.15;6.10;;;;;;;;;;4365817;32;20062;-76
2021/06/17 06:22:20;;;;;;;11.65;5.18;;;;;;;;;;4365508;32;20459;-76
2021/06/17 06:24:46;;;;;;;10.43;5.25;;;;;;;;;;4365012;32;20097;-76
2021/06/17 06:27:13;;;;;;;7.50;5.10;;;;;;;;;;4366031;32;20616;-76
2021/06/17 06:29:40;;;;;;;6.57;5.28;;;;;;;;;;4367349;32;20864;-76
2021/06/17 06:32:08;;;;;;;6.97;5.50;;;;;;;;;;4364999;32;20034;-80
2021/06/17 06:34:34;;;;;;;5.25;4.57;;;;;;;;;;4357181;32;20092;-83
2021/06/17 06:37:00;;;;;;;8.68;5.25;;;;;;;;;;4363961;32;20382;-76
2021/06/17 06:39:26;;;;;;;5.30;4.45;;;;;;;;;;4360292;32;20054;-76
2021/06/17 06:41:53;;;;;;;5.32;4.80;;;;;;;;;;4354041;32;20100;-78
2021/06/17 06:44:19;;;;;;;8.98;5.53;;;;;;;;;;4352762;32;20065;-76
2021/06/17 06:46:45;;;;;;;5.95;4.70;;;;;;;;;;4352984;32;20085;-76
2021/06/17 06:49:12;;;;;;;6.25;4.70;;;;;;;;;;4353613;32;20082;-76
2021/06/17 06:51:41;;;;;;;8.90;5.87;;;;;;;;;;4363448;32;20085;-76
2021/06/17 06:54:08;;;;;;;9.43;5.10;;;;;;;;;;4352128;32;20067;-75
2021/06/17 06:56:35;;;;;;;6.55;4.97;;;;;;;;;;4356580;32;20069;-81
2021/06/17 06:59:01;;;;;;;6.65;5.75;;;;;;;;;;4362132;32;20027;-77
2021/06/17 07:01:27;;;;;;;7.70;5.40;;;;;;;;;;4360729;32;20115;-76
2021/06/17 07:03:53;;;;;;;7.47;5.78;;;;;;;;;;4349932;32;20085;-77
2021/06/17 07:06:19;;;;;;;7.50;5.37;;;;;;;;;;4361670;32;20039;-76
2021/06/17 07:08:45;;;;;;;6.65;4.62;;;;;;;;;;4355899;32;20160;-76
2021/06/17 07:11:12;;;;;;;9.68;6.30;;;;;;;;;;4363461;32;20133;-77
2021/06/17 07:13:38;;;;;;;9.98;6.62;;;;;;;;;;4363201;32;20093;-77
2021/06/17 07:16:05;;;;;;;8.02;6.30;;;;;;;;;;4347606;32;20062;-82
2021/06/17 07:18:32;;;;;;;8.55;5.95;;;;;;;;;;4362265;32;20039;-76
2021/06/17 07:20:58;;;;;;;9.55;6.07;;;;;;;;;;4364130;32;20030;-76
2021/06/17 07:23:27;;;;;;;11.90;6.68;;;;;;;;;;4363550;32;20039;-79
2021/06/17 07:25:53;;;;;;;9.25;7.05;;;;;;;;;;4362276;32;20061;-76
2021/06/17 07:28:20;;;;;;;8.10;6.85;;;;;;;;;;4358391;32;20110;-76
2021/06/17 07:30:46;;;;;;;7.07;6.15;;;;;;;;;;4352906;32;20035;-76
2021/06/17 07:33:12;;;;;;;6.97;6.28;;;;;;;;;;4356400;32;20491;-76
2021/06/17 07:35:38;;;;;;;9.30;6.55;;;;;;;;;;4352840;32;20729;-76
2021/06/17 07:38:04;;;;;;;7.00;5.53;;;;;;;;;;4364343;32;20069;-76
2021/06/17 07:40:31;;;;;;;9.15;6.47;;;;;;;;;;4362082;32;20061;-76
2021/06/17 07:42:57;;;;;;;9.35;6.35;;;;;;;;;;4349648;32;20028;-76
2021/06/17 07:45:26;;;;;;;6.97;6.03;;;;;;;;;;4363187;32;20654;-76
2021/06/17 07:47:52;;;;;;;8.95;6.80;;;;;;;;;;4364219;32;20122;-76
2021/06/17 07:50:18;;;;;;;6.95;6.28;;;;;;;;;;4366050;32;20039;-76
2021/06/17 07:52:44;;;;;;;12.23;6.43;;;;;;;;;;4364875;32;20058;-76
2021/06/17 07:55:11;;;;;;;6.80;6.10;;;;;;;;;;4360774;32;20407;-76
2021/06/17 07:57:37;;;;;;;9.65;5.82;;;;;;;;;;4365804;32;20057;-77
2021/06/17 08:00:05;;;;;;;7.47;6.55;;;;;;;;;;4365138;32;20069;-76
2021/06/17 08:02:31;;;;;;;16.52;6.40;;;;;;;;;;4364944;32;20026;-78
2021/06/17 08:04:57;;;;;;;8.68;6.80;;;;;;;;;;4364915;32;20066;-76
2021/06/17 08:07:23;;;;;;;7.40;6.22;;;;;;;;;;4363924;32;20057;-77
2021/06/17 08:09:50;;;;;;;9.98;6.93;;;;;;;;;;4365156;32;20080;-76
2021/06/17 08:12:16;;;;;;;10.07;7.55;;;;;;;;;;4365554;32;20051;-76
2021/06/17 08:14:42;;;;;;;8.50;7.12;;;;;;;;;;4365918;32;20039;-76
2021/06/17 08:17:08;;;;;;;7.28;6.57;;;;;;;;;;4363662;32;20039;-76
2021/06/17 08:19:35;;;;;;;10.23;7.12;;;;;;;;;;4365834;32;20034;-76
2021/06/17 08:22:10;;;;;;;8.05;7.28;;;;;;;;;;4348694;33;20024;-76
2021/06/17 08:24:39;;;;;;;8.70;6.75;;;;;;;;;;4359876;32;20043;-76
2021/06/17 08:27:06;;;;;;;7.57;6.37;;;;;;;;;;4364917;32;20059;-77
2021/06/17 08:29:32;;;;;;;9.10;7.25;;;;;;;;;;4363389;32;20043;-77
2021/06/17 08:31:58;;;;;;;6.80;6.20;;;;;;;;;;4362984;32;20062;-76
2021/06/17 08:34:24;;;;;;;6.93;6.22;;;;;;;;;;4364111;32;20047;-75
2021/06/17 08:36:51;;;;;;;10.80;7.25;;;;;;;;;;4364178;32;20031;-76
2021/06/17 08:39:18;;;;;;;10.15;7.43;;;;;;;;;;4362749;32;20047;-76
2021/06/17 08:41:44;;;;;;;8.15;6.90;;;;;;;;;;4349576;32;20085;-76
2021/06/17 08:44:10;;;;;;;10.35;6.62;;;;;;;;;;4361896;32;20130;-76
2021/06/17 08:46:38;;;;;;;9.60;7.15;;;;;;;;;;4368184;32;20027;-76
2021/06/17 08:49:04;;;;;;;10.93;7.15;;;;;;;;;;4352182;32;20401;-77
2021/06/17 08:51:32;;;;;;;6.95;6.22;;;;;;;;;;4351449;32;20062;-76
2021/06/17 08:53:58;;;;;;;7.95;6.37;;;;;;;;;;4366220;32;20706;-76
2021/06/17 08:56:25;;;;;;;8.88;7.18;;;;;;;;;;4366750;32;20073;-76
2021/06/17 08:58:55;;;;;;;8.93;6.57;;;;;;;;;;4366450;32;20065;-77
2021/06/17 09:01:21;;;;;;;7.62;6.57;;;;;;;;;;4366047;32;20061;-77
2021/06/17 09:03:47;;;;;;;7.87;6.30;;;;;;;;;;4365174;32;20094;-76
2021/06/17 09:06:17;;;;;;;12.77;6.45;;;;;;;;;;4366508;32;20629;-76
2021/06/17 09:08:44;;;;;;;6.85;6.12;;;;;;;;;;4362129;32;20052;-76
2021/06/17 09:11:20;;;;;;;6.72;6.03;;;;;;;;;;4366774;32;20065;-78
2021/06/17 09:13:46;;;;;;;8.23;5.70;;;;;;;;;;4364354;32;20696;-77
2021/06/17 09:16:22;;;;;;;10.30;6.32;;;;;;;;;;4363617;32;20510;-79
2021/06/17 09:18:49;;;;;;;7.80;6.00;;;;;;;;;;4361381;32;20503;-78
2021/06/17 09:21:15;;;;;;;7.53;5.90;;;;;;;;;;4367211;32;20085;-77
2021/06/17 09:23:45;;;;;;;9.40;6.28;;;;;;;;;;4367190;32;20100;-77
2021/06/17 09:26:13;;;;;;;7.35;6.30;;;;;;;;;;4365278;32;20488;-77
2021/06/17 09:28:45;;;;;;;7.00;5.90;;;;;;;;;;4365503;32;20111;-77
2021/06/17 09:31:16;;;;;;;8.10;6.32;;;;;;;;;;4364340;32;20091;-77
2021/06/17 09:33:45;;;;;;;6.50;5.90;;;;;;;;;;4363528;32;20368;-77
2021/06/17 09:36:12;;;;;;;8.05;6.95;;;;;;;;;;4348828;32;20565;-77
2021/06/17 09:38:45;;;;;;;8.00;6.93;;;;;;;;;;4363803;32;20090;-78
2021/06/17 09:41:12;;;;;;;6.10;5.60;;;;;;;;;;4349255;32;20082;-78
2021/06/17 09:43:43;;;;;;;8.27;6.78;;;;;;;;;;4366085;32;20445;-78
2021/06/17 09:46:11;;;;;;;7.07;6.07;;;;;;;;;;4366919;32;20659;-77
2021/06/17 09:48:39;;;;;;;7.25;5.97;;;;;;;;;;4365041;32;20602;-77
2021/06/17 09:51:23;;;;;;;7.35;6.30;;;;;;;;;;4351602;32;20522;-77
2021/06/17 09:53:50;;;;;;;7.90;6.18;;;;;;;;;;4365672;32;20054;-77
2021/06/17 09:56:17;;;;;;;9.70;5.90;;;;;;;;;;4350646;32;20097;-77
2021/06/17 09:58:44;;;;;;;5.90;5.40;;;;;;;;;;4364207;32;20046;-77
2021/06/17 10:01:16;;;;;;;6.40;5.75;;;;;;;;;;4349386;32;20070;-79
2021/06/17 10:03:42;;;;;;;11.05;6.10;;;;;;;;;;4366285;32;20094;-76
2021/06/17 10:06:21;;;;;;;6.65;5.97;;;;;;;;;;4366345;32;20035;-79
2021/06/17 10:08:47;;;;;;;6.35;5.75;;;;;;;;;;4349602;32;20153;-78
2021/06/17 10:11:14;;;;;;;6.30;5.40;;;;;;;;;;4363783;32;20441;-78
2021/06/17 10:13:41;;;;;;;4.40;4.00;;;;;;;;;;4366271;32;20082;-78
2021/06/17 10:16:07;;;;;;;5.43;4.70;;;;;;;;;;4349458;32;20654;-75
2021/06/17 10:18:35;;;;;;;4.68;4.20;;;;;;;;;;4349062;32;20408;-75
2021/06/17 10:21:02;;;;;;;4.90;4.35;;;;;;;;;;4366638;32;20043;-75
2021/06/17 10:23:28;;;;;;;5.40;4.90;;;;;;;;;;4363915;32;20043;-76
2021/06/17 10:25:54;;;;;;;4.75;4.20;;;;;;;;;;4366077;32;20031;-76
2021/06/17 10:28:39;;;;;;;5.60;4.55;;;;;;;;;;4351648;32;20096;-76
2021/06/17 10:31:06;;;;;;;4.40;3.95;;;;;;;;;;4348644;32;20035;-77
2021/06/17 10:33:34;;;;;;;4.62;4.22;;;;;;;;;;4357619;32;20121;-76
2021/06/17 10:36:23;;;;;;;6.68;4.97;;;;;;;;;;4364526;32;20066;-76
2021/06/17 10:39:09;;;;;;;5.10;4.07;;;;;;;;;;4366619;32;20038;-76
2021/06/17 10:41:49;;;;;;;5.57;4.50;;;;;;;;;;4364338;32;20043;-75
2021/06/17 10:44:34;;;;;;;4.80;4.30;;;;;;;;;;4365557;32;20043;-75
2021/06/17 10:47:00;;;;;;;6.53;4.68;;;;;;;;;;4363070;32;20145;-77
2021/06/17 10:49:59;;;;;;;5.37;4.53;;;;;;;;;;4350333;32;20574;-77
2021/06/17 10:52:26;;;;;;;7.40;4.05;;;;;;;;;;4325403;32;20039;-77
2021/06/17 10:55:14;;;;;;;6.43;4.28;;;;;;;;;;4363787;32;20109;-77
2021/06/17 10:57:49;;;;;;;4.15;3.58;;;;;;;;;;4365807;32;20096;-78
2021/06/17 11:00:25;;;;;;;5.47;4.82;;;;;;;;;;4364083;32;20043;-77
2021/06/17 11:03:06;;;;;;;4.50;4.10;;;;;;;;;;4364752;32;20506;-78
2021/06/17 11:05:35;;;;;;;8.48;4.87;;;;;;;;;;4363869;32;20142;-78
2021/06/17 11:08:17;;;;;;;5.57;4.82;;;;;;;;;;4364504;32;20524;-78
2021/06/17 11:10:44;;;;;;;;;;;;;;;;;;4363362;32;20062;-78
2021/06/17 11:13:10;;;;;;;5.37;4.10;;;;;;;;;;4365707;32;19950;-78
2021/06/17 11:15:37;;;;;;;5.32;4.78;;;;;;;;;;4366339;32;20166;-76
2021/06/17 11:18:04;;;;;;;6.72;4.47;;;;;;;;;;4364767;32;20439;-78
2021/06/17 11:20:37;;;;;;;6.37;4.50;;;;;;;;;;4366011;32;20047;-77
2021/06/17 11:23:04;;;;;;;6.05;4.40;;;;;;;;;;4363623;32;20042;-76
2021/06/17 11:25:31;;;;;;;7.05;4.65;;;;;;;;;;4364879;32;20046;-77
2021/06/17 11:27:57;;;;;;;4.75;4.35;;;;;;;;;;4364810;32;20042;-76
2021/06/17 11:30:53;;;;;;;5.35;4.85;;;;;;;;;;4365888;32;20482;-77
2021/06/17 11:33:25;;;;;;;5.75;4.60;;;;;;;;;;4359374;32;20097;-77
2021/06/17 11:35:55;;;;;;;4.93;4.50;;;;;;;;;;4363931;32;20073;-76
2021/06/17 11:38:35;;;;;;;5.00;4.50;;;;;;;;;;4365750;32;20039;-76
2021/06/17 11:41:10;;;;;;;4.90;3.80;;;;;;;;;;4364298;32;20083;-76
2021/06/17 11:43:36;;;;;;;7.55;4.57;;;;;;;;;;4364644;32;20036;-76
2021/06/17 11:46:02;;;;;;;5.32;4.62;;;;;;;;;;4364779;32;20325;-76
2021/06/17 11:48:29;;;;;;;5.93;3.65;;;;;;;;;;4364345;32;20674;-76
2021/06/17 11:50:55;;;;;;;4.50;4.03;;;;;;;;;;4364640;32;20453;-76
2021/06/17 11:53:25;;;;;;;6.85;4.30;;;;;;;;;;4365721;32;20039;-76
2021/06/17 11:55:56;;;;;;;5.07;4.20;;;;;;;;;;4348258;32;20360;-76
2021/06/17 11:58:28;;;;;;;5.37;4.05;;;;;;;;;;4364811;32;20106;-77
2021/06/17 12:00:55;;;;;;;6.65;4.00;;;;;;;;;;4364054;32;20039;-76
2021/06/17 12:03:24;;;;;;;4.68;4.18;;;;;;;;;;4364742;32;20993;-76
2021/06/17 12:06:04;;;;;;;6.65;4.93;;;;;;;;;;4365355;32;20378;-76
2021/06/17 12:08:31;;;;;;;9.60;4.60;;;;;;;;;;4365023;32;20035;-76
2021/06/17 12:11:02;;;;;;;4.20;3.80;;;;;;;;;;4364677;32;20034;-76
2021/06/17 12:13:28;;;;;;;4.43;4.03;;;;;;;;;;4363979;32;20125;-76
2021/06/17 12:15:58;;;;;;;5.72;4.20;;;;;;;;;;4365687;32;20688;-76
2021/06/17 12:18:24;;;;;;;3.92;3.10;;;;;;;;;;4349601;32;20047;-76
2021/06/17 12:20:51;;;;;;;4.53;3.80;;;;;;;;;;4362734;32;20065;-77
2021/06/17 12:23:22;;;;;;;4.32;3.92;;;;;;;;;;4365347;32;20042;-77
2021/06/17 12:25:57;;;;;;;4.18;3.70;;;;;;;;;;4364641;32;20074;-76
2021/06/17 12:28:24;;;;;;;5.37;4.10;;;;;;;;;;4365535;32;20055;-76
2021/06/17 12:30:50;;;;;;;5.43;4.07;;;;;;;;;;4363596;32;20471;-76
2021/06/17 12:33:19;;;;;;;4.85;3.72;;;;;;;;;;4357583;32;20111;-76
2021/06/17 12:35:53;;;;;;;3.60;3.30;;;;;;;;;;4362100;32;20107;-77
2021/06/17 12:38:26;;;;;;;5.07;3.97;;;;;;;;;;4361882;32;20096;-75
2021/06/17 12:40:52;;;;;;;6.22;4.05;;;;;;;;;;4350461;32;20051;-76
2021/06/17 12:43:25;;;;;;;4.72;4.15;;;;;;;;;;4349587;32;20086;-75
2021/06/17 12:46:08;;;;;;;5.18;4.20;;;;;;;;;;4349824;32;20099;-77
2021/06/17 12:54:22;;;;;;;4.07;3.55;;;;;;;;;;4353230;32;20112;-76
2021/06/17 12:57:08;;;;;;;7.53;4.57;;;;;;;;;;4349394;32;20086;-76
2021/06/17 12:59:48;;;;;;;6.70;4.75;;;;;;;;;;4342940;32;20047;-76
2021/06/17 13:02:23;;;;;;;5.68;4.28;;;;;;;;;;4348933;32;20069;-76
2021/06/17 13:05:04;;;;;;;7.15;4.87;;;;;;;;;;4334700;32;20447;-76
2021/06/17 13:07:31;;;;;;;7.65;5.05;;;;;;;;;;4351540;32;20093;-76
2021/06/17 13:10:12;;;;;;;5.68;3.87;;;;;;;;;;4362110;32;20099;-76
2021/06/17 13:12:39;;;;;;;7.68;4.78;;;;;;;;;;4348524;32;20075;-76
2021/06/17 13:15:06;;;;;;;5.00;4.07;;;;;;;;;;4365139;32;20146;-76
2021/06/17 13:17:33;;;;;;;9.77;4.50;;;;;;;;;;4363784;32;20086;-76
2021/06/17 13:20:00;;;;;;;5.30;3.97;;;;;;;;;;4363648;32;20085;-77
2021/06/17 13:22:27;;;;;;;5.10;4.30;;;;;;;;;;4364788;32;20044;-76
2021/06/17 13:24:57;;;;;;;7.20;4.05;;;;;;;;;;4362307;32;20065;-76
2021/06/17 13:27:27;;;;;;;6.30;3.90;;;;;;;;;;4357651;32;20601;-76
2021/06/17 13:29:54;;;;;;;5.40;3.53;;;;;;;;;;4365558;32;20050;-76
2021/06/17 13:32:20;;;;;;;4.75;3.65;;;;;;;;;;4365979;32;20046;-79
2021/06/17 13:34:46;;;;;;;6.62;4.50;;;;;;;;;;4366725;32;20471;-77
2021/06/17 13:37:13;;;;;;;6.53;3.85;;;;;;;;;;4367733;32;20043;-77
2021/06/17 13:39:39;;;;;;;3.78;3.45;;;;;;;;;;4364913;32;20067;-77
2021/06/17 13:42:05;;;;;;;4.78;3.10;;;;;;;;;;4367880;32;20035;-78
2021/06/17 13:44:34;;;;;;;5.05;3.05;;;;;;;;;;4366427;32;20423;-77
2021/06/17 13:47:00;;;;;;;4.10;3.67;;;;;;;;;;4367814;32;20094;-77
2021/06/17 13:49:26;;;;;;;4.47;3.85;;;;;;;;;;4366294;32;20062;-77
2021/06/17 13:51:55;;;;;;;3.92;3.25;;;;;;;;;;4366264;32;20061;-77
2021/06/17 13:54:22;;;;;;;6.37;3.72;;;;;;;;;;4364930;32;20123;-76
2021/06/17 13:56:51;;;;;;;4.20;3.50;;;;;;;;;;4366479;32;20112;-78
2021/06/17 13:59:18;;;;;;;4.03;3.60;;;;;;;;;;4367264;32;20129;-77
2021/06/17 14:01:44;;;;;;;4.68;3.45;;;;;;;;;;4367053;32;20066;-77
2021/06/17 14:04:17;;;;;;;5.30;3.33;;;;;;;;;;4365988;32;20070;-77
2021/06/17 14:06:47;;;;;;;4.87;3.60;;;;;;;;;;4350088;32;20113;-76
2021/06/17 14:09:13;;;;;;;4.90;3.92;;;;;;;;;;4358266;32;20354;-77
2021/06/17 14:11:40;;;;;;;4.47;3.60;;;;;;;;;;4366491;32;20063;-78
2021/06/17 14:14:06;;;;;;;4.72;3.60;;;;;;;;;;4365710;32;20721;-77
2021/06/17 14:16:33;;;;;;;5.40;3.53;;;;;;;;;;4366097;32;20069;-77
2021/06/17 14:19:02;;;;;;;4.20;3.67;;;;;;;;;;4365708;32;20035;-77
2021/06/17 14:21:29;;;;;;;4.70;3.97;;;;;;;;;;4365413;32;20058;-77
2021/06/17 14:23:55;;;;;;;4.40;3.75;;;;;;;;;;4367014;32;20057;-77
2021/06/17 14:26:21;;;;;;;3.83;3.53;;;;;;;;;;4366230;32;20375;-77
2021/06/17 14:28:48;;;;;;;3.83;3.53;;;;;;;;;;4364555;32;20051;-76
2021/06/17 14:31:14;;;;;;;4.87;3.67;;;;;;;;;;4366199;32;20078;-78
2021/06/17 14:33:40;;;;;;;8.18;4.05;;;;;;;;;;4365313;32;20137;-77
2021/06/17 14:36:07;;;;;;;4.18;3.45;;;;;;;;;;4366500;32;20612;-76
2021/06/17 14:38:35;;;;;;;4.82;3.00;;;;;;;;;;4365515;32;20088;-77
2021/06/17 14:41:01;;;;;;;3.90;3.40;;;;;;;;;;4365337;32;20043;-77
2021/06/17 14:43:27;;;;;;;9.82;3.87;;;;;;;;;;4366495;32;20655;-77
2021/06/17 14:45:53;;;;;;;4.55;3.53;;;;;;;;;;4365155;32;20113;-76
2021/06/17 14:48:21;;;;;;;8.63;3.58;;;;;;;;;;4366134;32;20054;-76
2021/06/17 14:50:47;;;;;;;6.70;4.15;;;;;;;;;;4364763;32;20031;-77
2021/06/17 14:53:13;;;;;;;5.93;4.20;;;;;;;;;;4365940;32;20081;-76
2021/06/17 14:55:39;;;;;;;4.57;3.87;;;;;;;;;;4359259;32;227125;-77
2021/06/17 14:58:06;;;;;;;7.15;3.55;;;;;;;;;;4366734;32;20073;-76